sensor_id;sensor_type;location;lat;lon;timestamp;pressure;altitude;pressure_sealevel;temperature;humidity
11053;BME280;55230;42.602;23.470;2023-08-06T00:00:22;92459.94;;;18.15;100.00
11053;BME280;55230;42.602;23.470;2023-08-06T00:02:49;92464.81;;;18.03;100.00
11053;BME280;55230;42.602;23.470;2023-08-06T00:05:16;92475.56;;;18.14;100.00
11053;BME280;55230;42.602;23.470;2023-08-06T00:07:43;92484.28;;;18.13;100.00
11053;BME280;55230;42.602;23.470;2023-08-06T00:10:09;92471.53;;;18.02;100.00
11053;BME280;55230;42.602;23.470;2023-08-06T00:12:36;92474.28;;;18.15;100.00
11053;BME280;55230;42.602;23.470;2023-08-06T00:15:02;92455.34;;;18.23;100.00
11053;BME280;55230;42.602;23.470;2023-08-06T00:17:30;92448.75;;;18.31;100.00
11053;BME280;55230;42.602;23.470;2023-08-06T00:19:57;92449.94;;;18.36;100.00
11053;BME280;55230;42.602;23.470;2023-08-06T00:22:29;92436.66;;;18.27;100.00
11053;BME280;55230;42.602;23.470;2023-08-06T00:24:55;92448.22;;;18.33;100.00
11053;BME280;55230;42.602;23.470;2023-08-06T00:27:23;92452.81;;;18.25;100.00
11053;BME280;55230;42.602;23.470;2023-08-06T00:29:49;92445.00;;;18.03;100.00
11053;BME280;55230;42.602;23.470;2023-08-06T00:32:16;92449.66;;;17.89;100.00
11053;BME280;55230;42.602;23.470;2023-08-06T00:34:44;92433.75;;;17.75;100.00
11053;BME280;55230;42.602;23.470;2023-08-06T00:37:10;92425.06;;;17.76;100.00
11053;BME280;55230;42.602;23.470;2023-08-06T00:39:37;92427.41;;;17.85;100.00
11053;BME280;55230;42.602;23.470;2023-08-06T00:42:03;92430.06;;;17.91;100.00
11053;BME280;55230;42.602;23.470;2023-08-06T00:44:30;92433.72;;;17.93;100.00
11053;BME280;55230;42.602;23.470;2023-08-06T00:46:56;92437.16;;;17.81;100.00
11053;BME280;55230;42.602;23.470;2023-08-06T00:49:23;92418.25;;;17.83;100.00
11053;BME280;55230;42.602;23.470;2023-08-06T00:51:51;92403.38;;;17.84;100.00
11053;BME280;55230;42.602;23.470;2023-08-06T00:54:18;92405.84;;;17.69;100.00
11053;BME280;55230;42.602;23.470;2023-08-06T00:56:44;92408.94;;;17.60;100.00
11053;BME280;55230;42.602;23.470;2023-08-06T00:59:11;92416.75;;;17.69;100.00
11053;BME280;55230;42.602;23.470;2023-08-06T01:01:38;92419.91;;;17.73;100.00
11053;BME280;55230;42.602;23.470;2023-08-06T01:04:05;92406.63;;;17.64;100.00
11053;BME280;55230;42.602;23.470;2023-08-06T01:06:34;92392.06;;;17.61;100.00
11053;BME280;55230;42.602;23.470;2023-08-06T01:09:07;92382.16;;;17.77;100.00
11053;BME280;55230;42.602;23.470;2023-08-06T01:11:42;92389.97;;;17.86;100.00
11053;BME280;55230;42.602;23.470;2023-08-06T01:14:12;92372.84;;;17.85;100.00
11053;BME280;55230;42.602;23.470;2023-08-06T01:16:40;92379.44;;;17.77;100.00
11053;BME280;55230;42.602;23.470;2023-08-06T01:19:15;92370.81;;;17.73;100.00
11053;BME280;55230;42.602;23.470;2023-08-06T01:21:43;92362.22;;;17.69;100.00
11053;BME280;55230;42.602;23.470;2023-08-06T01:24:10;92360.00;;;17.67;100.00
11053;BME280;55230;42.602;23.470;2023-08-06T01:26:37;92362.00;;;17.67;100.00
11053;BME280;55230;42.602;23.470;2023-08-06T01:29:06;92367.47;;;17.67;100.00
11053;BME280;55230;42.602;23.470;2023-08-06T01:31:35;92351.63;;;17.65;100.00
11053;BME280;55230;42.602;23.470;2023-08-06T01:34:03;92351.50;;;17.71;100.00
11053;BME280;55230;42.602;23.470;2023-08-06T01:36:31;92357.56;;;17.64;100.00
11053;BME280;55230;42.602;23.470;2023-08-06T01:38:59;92362.00;;;17.67;100.00
11053;BME280;55230;42.602;23.470;2023-08-06T01:41:25;92361.50;;;17.81;100.00
11053;BME280;55230;42.602;23.470;2023-08-06T01:43:52;92351.50;;;17.71;100.00
11053;BME280;55230;42.602;23.470;2023-08-06T01:46:18;92351.72;;;17.73;100.00
11053;BME280;55230;42.602;23.470;2023-08-06T01:48:45;92349.88;;;17.81;100.00
11053;BME280;55230;42.602;23.470;2023-08-06T01:51:11;92355.88;;;17.92;100.00
11053;BME280;55230;42.602;23.470;2023-08-06T01:53:38;92352.19;;;17.90;100.00
11053;BME280;55230;42.602;23.470;2023-08-06T01:56:05;92353.47;;;18.02;100.00
11053;BME280;55230;42.602;23.470;2023-08-06T01:58:32;92345.13;;;18.13;100.00
11053;BME280;55230;42.602;23.470;2023-08-06T02:00:58;92349.53;;;18.03;100.00
11053;BME280;55230;42.602;23.470;2023-08-06T02:03:25;92342.16;;;17.98;100.00
11053;BME280;55230;42.602;23.470;2023-08-06T02:05:51;92340.06;;;18.04;100.00
11053;BME280;55230;42.602;23.470;2023-08-06T02:08:18;92342.41;;;18.13;100.00
11053;BME280;55230;42.602;23.470;2023-08-06T02:10:44;92343.13;;;18.13;100.00
11053;BME280;55230;42.602;23.470;2023-08-06T02:13:12;92336.94;;;18.13;100.00
11053;BME280;55230;42.602;23.470;2023-08-06T02:15:41;92330.22;;;18.14;100.00
11053;BME280;55230;42.602;23.470;2023-08-06T02:18:08;92334.53;;;18.22;100.00
11053;BME280;55230;42.602;23.470;2023-08-06T02:20:34;92348.69;;;18.21;100.00
11053;BME280;55230;42.602;23.470;2023-08-06T02:23:01;92346.06;;;18.15;100.00
11053;BME280;55230;42.602;23.470;2023-08-06T02:25:27;92341.03;;;18.19;100.00
11053;BME280;55230;42.602;23.470;2023-08-06T02:27:54;92352.38;;;18.23;100.00
11053;BME280;55230;42.602;23.470;2023-08-06T02:30:22;92356.34;;;18.22;100.00
11053;BME280;55230;42.602;23.470;2023-08-06T02:32:48;92362.44;;;18.15;100.00
11053;BME280;55230;42.602;23.470;2023-08-06T02:35:15;92378.81;;;18.15;100.00
11053;BME280;55230;42.602;23.470;2023-08-06T02:37:41;92371.56;;;18.18;100.00
11053;BME280;55230;42.602;23.470;2023-08-06T02:40:08;92372.09;;;18.16;100.00
11053;BME280;55230;42.602;23.470;2023-08-06T02:42:35;92373.69;;;18.25;100.00
11053;BME280;55230;42.602;23.470;2023-08-06T02:45:01;92376.50;;;18.06;100.00
11053;BME280;55230;42.602;23.470;2023-08-06T02:47:29;92384.63;;;17.93;100.00
11053;BME280;55230;42.602;23.470;2023-08-06T02:49:57;92394.50;;;17.96;100.00
11053;BME280;55230;42.602;23.470;2023-08-06T02:52:23;92393.31;;;17.92;100.00
11053;BME280;55230;42.602;23.470;2023-08-06T02:54:50;92387.28;;;17.99;100.00
11053;BME280;55230;42.602;23.470;2023-08-06T02:57:16;92381.97;;;17.88;100.00
11053;BME280;55230;42.602;23.470;2023-08-06T02:59:43;92372.31;;;17.74;100.00
11053;BME280;55230;42.602;23.470;2023-08-06T03:02:09;92367.03;;;17.76;100.00
11053;BME280;55230;42.602;23.470;2023-08-06T03:04:37;92359.31;;;17.80;100.00
11053;BME280;55230;42.602;23.470;2023-08-06T03:07:04;92351.03;;;17.85;100.00
11053;BME280;55230;42.602;23.470;2023-08-06T03:09:30;92366.06;;;17.92;100.00
11053;BME280;55230;42.602;23.470;2023-08-06T03:11:56;92379.91;;;17.94;100.00
11053;BME280;55230;42.602;23.470;2023-08-06T03:14:23;92381.81;;;17.99;100.00
11053;BME280;55230;42.602;23.470;2023-08-06T03:16:49;92357.63;;;18.08;100.00
11053;BME280;55230;42.602;23.470;2023-08-06T03:19:16;92307.75;;;18.08;100.00
11053;BME280;55230;42.602;23.470;2023-08-06T03:21:44;92298.63;;;18.05;100.00
11053;BME280;55230;42.602;23.470;2023-08-06T03:24:10;92295.75;;;17.85;100.00
11053;BME280;55230;42.602;23.470;2023-08-06T03:26:37;92314.44;;;17.81;100.00
11053;BME280;55230;42.602;23.470;2023-08-06T03:29:03;92334.97;;;17.82;100.00
11053;BME280;55230;42.602;23.470;2023-08-06T03:31:29;92352.19;;;17.90;100.00
11053;BME280;55230;42.602;23.470;2023-08-06T03:33:55;92369.22;;;17.96;100.00
11053;BME280;55230;42.602;23.470;2023-08-06T03:36:22;92379.69;;;17.92;100.00
11053;BME280;55230;42.602;23.470;2023-08-06T03:38:49;92369.00;;;17.94;100.00
11053;BME280;55230;42.602;23.470;2023-08-06T03:41:16;92376.97;;;17.92;100.00
11053;BME280;55230;42.602;23.470;2023-08-06T03:43:42;92383.91;;;17.93;100.00
11053;BME280;55230;42.602;23.470;2023-08-06T03:46:09;92382.41;;;17.92;100.00
11053;BME280;55230;42.602;23.470;2023-08-06T05:10:25;92317.41;;;19.13;100.00
11053;BME280;55230;42.602;23.470;2023-08-06T05:12:52;92315.88;;;19.25;100.00
11053;BME280;55230;42.602;23.470;2023-08-06T05:15:18;92314.06;;;19.28;100.00
11053;BME280;55230;42.602;23.470;2023-08-06T05:17:45;92317.50;;;19.08;100.00
11053;BME280;55230;42.602;23.470;2023-08-06T05:20:11;92324.34;;;19.01;100.00
11053;BME280;55230;42.602;23.470;2023-08-06T05:22:38;92316.50;;;18.85;100.00
11053;BME280;55230;42.602;23.470;2023-08-06T05:25:05;92323.56;;;18.41;100.00
11053;BME280;55230;42.602;23.470;2023-08-06T05:27:33;92329.38;;;18.19;100.00
11053;BME280;55230;42.602;23.470;2023-08-06T05:29:59;92336.72;;;18.11;100.00
11053;BME280;55230;42.602;23.470;2023-08-06T05:32:26;92330.25;;;18.27;100.00
11053;BME280;55230;42.602;23.470;2023-08-06T05:34:52;92333.91;;;18.29;100.00
11053;BME280;55230;42.602;23.470;2023-08-06T05:37:19;92324.78;;;18.27;100.00
11053;BME280;55230;42.602;23.470;2023-08-06T05:39:45;92326.56;;;18.11;100.00
11053;BME280;55230;42.602;23.470;2023-08-06T05:42:12;92320.13;;;17.96;100.00
11053;BME280;55230;42.602;23.470;2023-08-06T05:44:40;92326.16;;;18.20;100.00
11053;BME280;55230;42.602;23.470;2023-08-06T05:47:06;92316.63;;;18.53;100.00
11053;BME280;55230;42.602;23.470;2023-08-06T05:49:33;92315.56;;;18.82;100.00
11053;BME280;55230;42.602;23.470;2023-08-06T05:51:59;92314.34;;;19.04;100.00
11053;BME280;55230;42.602;23.470;2023-08-06T05:54:26;92316.81;;;18.94;100.00
11053;BME280;55230;42.602;23.470;2023-08-06T05:56:52;92327.50;;;18.92;100.00
11053;BME280;55230;42.602;23.470;2023-08-06T05:59:19;92332.94;;;19.05;100.00
11053;BME280;55230;42.602;23.470;2023-08-06T06:01:46;92347.84;;;19.17;100.00
11053;BME280;55230;42.602;23.470;2023-08-06T06:04:13;92347.91;;;18.91;100.00
11053;BME280;55230;42.602;23.470;2023-08-06T06:06:39;92352.03;;;18.72;100.00
11053;BME280;55230;42.602;23.470;2023-08-06T06:09:07;92354.03;;;18.58;100.00
11053;BME280;55230;42.602;23.470;2023-08-06T06:11:33;92365.13;;;18.73;100.00
11053;BME280;55230;42.602;23.470;2023-08-06T06:14:00;92368.09;;;18.75;100.00
11053;BME280;55230;42.602;23.470;2023-08-06T06:16:26;92361.38;;;18.63;100.00
11053;BME280;55230;42.602;23.470;2023-08-06T06:18:54;92373.75;;;18.77;100.00
11053;BME280;55230;42.602;23.470;2023-08-06T06:21:22;92378.38;;;18.95;100.00
11053;BME280;55230;42.602;23.470;2023-08-06T06:23:49;92388.69;;;18.89;100.00
11053;BME280;55230;42.602;23.470;2023-08-06T06:26:16;92391.28;;;19.08;100.00
11053;BME280;55230;42.602;23.470;2023-08-06T06:28:43;92390.22;;;19.24;100.00
11053;BME280;55230;42.602;23.470;2023-08-06T06:31:09;92393.06;;;19.18;100.00
11053;BME280;55230;42.602;23.470;2023-08-06T06:33:36;92390.56;;;18.94;100.00
11053;BME280;55230;42.602;23.470;2023-08-06T06:36:04;92388.75;;;18.97;100.00
11053;BME280;55230;42.602;23.470;2023-08-06T06:38:32;92394.53;;;18.93;100.00
11053;BME280;55230;42.602;23.470;2023-08-06T06:40:59;92401.50;;;18.94;100.00
11053;BME280;55230;42.602;23.470;2023-08-06T06:43:27;92407.78;;;19.02;100.00
11053;BME280;55230;42.602;23.470;2023-08-06T06:45:55;92414.09;;;18.97;100.00
11053;BME280;55230;42.602;23.470;2023-08-06T06:48:22;92413.25;;;18.76;100.00
11053;BME280;55230;42.602;23.470;2023-08-06T06:50:48;92412.72;;;18.52;100.00
11053;BME280;55230;42.602;23.470;2023-08-06T06:53:16;92421.22;;;18.48;100.00
11053;BME280;55230;42.602;23.470;2023-08-06T06:55:43;92423.50;;;18.57;100.00
11053;BME280;55230;42.602;23.470;2023-08-06T06:58:09;92432.66;;;18.60;100.00
11053;BME280;55230;42.602;23.470;2023-08-06T07:00:36;92428.16;;;18.75;100.00
11053;BME280;55230;42.602;23.470;2023-08-06T07:03:02;92428.81;;;18.94;100.00
11053;BME280;55230;42.602;23.470;2023-08-06T07:05:29;92443.09;;;19.13;100.00
11053;BME280;55230;42.602;23.470;2023-08-06T07:07:55;92439.72;;;19.33;100.00
11053;BME280;55230;42.602;23.470;2023-08-06T07:10:26;92454.00;;;19.52;100.00
11053;BME280;55230;42.602;23.470;2023-08-06T07:12:52;92452.13;;;19.47;100.00
11053;BME280;55230;42.602;23.470;2023-08-06T07:15:19;92455.88;;;19.58;100.00
11053;BME280;55230;42.602;23.470;2023-08-06T07:17:46;92465.22;;;19.75;100.00
11053;BME280;55230;42.602;23.470;2023-08-06T07:20:12;92458.25;;;19.87;100.00
11053;BME280;55230;42.602;23.470;2023-08-06T07:22:39;92457.84;;;20.04;100.00
11053;BME280;55230;42.602;23.470;2023-08-06T07:25:06;92460.25;;;20.20;100.00
11053;BME280;55230;42.602;23.470;2023-08-06T07:27:34;92463.75;;;20.41;100.00
11053;BME280;55230;42.602;23.470;2023-08-06T07:30:00;92461.88;;;20.85;100.00
11053;BME280;55230;42.602;23.470;2023-08-06T07:32:27;92458.78;;;21.09;100.00
11053;BME280;55230;42.602;23.470;2023-08-06T07:34:54;92470.97;;;21.64;100.00
11053;BME280;55230;42.602;23.470;2023-08-06T07:37:24;92468.41;;;22.02;100.00
11053;BME280;55230;42.602;23.470;2023-08-06T07:39:53;92457.69;;;22.42;100.00
11053;BME280;55230;42.602;23.470;2023-08-06T07:42:19;92463.25;;;22.79;100.00
11053;BME280;55230;42.602;23.470;2023-08-06T07:44:51;92468.53;;;23.30;100.00
11053;BME280;55230;42.602;23.470;2023-08-06T07:47:18;92465.78;;;22.85;100.00
11053;BME280;55230;42.602;23.470;2023-08-06T07:49:44;92457.88;;;23.34;100.00
11053;BME280;55230;42.602;23.470;2023-08-06T07:52:11;92461.19;;;23.25;96.68
11053;BME280;55230;42.602;23.470;2023-08-06T07:54:37;92465.34;;;23.56;98.29
11053;BME280;55230;42.602;23.470;2023-08-06T07:57:04;92459.31;;;23.97;95.88
11053;BME280;55230;42.602;23.470;2023-08-06T07:59:31;92458.44;;;23.87;92.72
11053;BME280;55230;42.602;23.470;2023-08-06T08:01:59;92459.47;;;23.52;97.05
11053;BME280;55230;42.602;23.470;2023-08-06T08:04:26;92455.13;;;23.96;91.94
11053;BME280;55230;42.602;23.470;2023-08-06T08:06:52;92453.84;;;23.20;92.95
11053;BME280;55230;42.602;23.470;2023-08-06T08:09:19;92448.00;;;23.09;87.52
11053;BME280;55230;42.602;23.470;2023-08-06T08:11:46;92451.69;;;22.88;87.97
11053;BME280;55230;42.602;23.470;2023-08-06T08:14:12;92442.84;;;22.52;90.50
11053;BME280;55230;42.602;23.470;2023-08-06T08:16:39;92452.06;;;22.70;87.45
11053;BME280;55230;42.602;23.470;2023-08-06T08:19:07;92453.50;;;22.93;89.27
11053;BME280;55230;42.602;23.470;2023-08-06T08:21:33;92452.06;;;22.55;85.45
11053;BME280;55230;42.602;23.470;2023-08-06T08:24:00;92456.59;;;22.52;87.57
11053;BME280;55230;42.602;23.470;2023-08-06T08:26:27;92454.22;;;22.41;88.80
11053;BME280;55230;42.602;23.470;2023-08-06T08:28:53;92458.97;;;22.41;88.61
11053;BME280;55230;42.602;23.470;2023-08-06T08:31:20;92457.81;;;22.21;87.43
11053;BME280;55230;42.602;23.470;2023-08-06T08:33:47;92449.06;;;22.45;82.41
11053;BME280;55230;42.602;23.470;2023-08-06T08:36:14;92456.41;;;22.43;84.12
11053;BME280;55230;42.602;23.470;2023-08-06T08:38:41;92454.75;;;22.40;85.66
11053;BME280;55230;42.602;23.470;2023-08-06T08:41:09;92462.66;;;22.66;85.09
11053;BME280;55230;42.602;23.470;2023-08-06T08:43:36;92457.91;;;22.81;78.27
11053;BME280;55230;42.602;23.470;2023-08-06T08:46:02;92443.63;;;22.90;81.56
11053;BME280;55230;42.602;23.470;2023-08-06T08:48:30;92444.69;;;23.33;82.74
11053;BME280;55230;42.602;23.470;2023-08-06T08:50:56;92451.28;;;23.22;82.29
11053;BME280;55230;42.602;23.470;2023-08-06T08:53:25;92440.69;;;22.66;83.62
11053;BME280;55230;42.602;23.470;2023-08-06T08:55:53;92432.44;;;23.04;87.08
11053;BME280;55230;42.602;23.470;2023-08-06T08:58:19;92436.41;;;23.18;80.31
11053;BME280;55230;42.602;23.470;2023-08-06T09:00:46;92437.38;;;23.05;80.85
11053;BME280;55230;42.602;23.470;2023-08-06T09:03:13;92434.81;;;22.92;78.09
11053;BME280;55230;42.602;23.470;2023-08-06T09:05:40;92425.31;;;22.70;81.11
11053;BME280;55230;42.602;23.470;2023-08-06T09:08:10;92431.88;;;22.90;79.84
11053;BME280;55230;42.602;23.470;2023-08-06T09:10:38;92426.38;;;22.90;77.37
11053;BME280;55230;42.602;23.470;2023-08-06T09:13:05;92421.59;;;23.13;77.72
11053;BME280;55230;42.602;23.470;2023-08-06T09:15:32;92413.66;;;23.25;76.85
11053;BME280;55230;42.602;23.470;2023-08-06T09:17:58;92419.75;;;23.38;72.95
11053;BME280;55230;42.602;23.470;2023-08-06T09:20:25;92416.19;;;23.53;76.57
11053;BME280;55230;42.602;23.470;2023-08-06T09:22:52;92419.13;;;23.55;73.16
11053;BME280;55230;42.602;23.470;2023-08-06T09:25:20;92419.25;;;23.64;71.25
11053;BME280;55230;42.602;23.470;2023-08-06T09:27:50;92406.41;;;23.74;70.12
11053;BME280;55230;42.602;23.470;2023-08-06T09:30:28;92412.69;;;23.60;68.75
11053;BME280;55230;42.602;23.470;2023-08-06T09:32:55;92413.63;;;23.55;69.05
11053;BME280;55230;42.602;23.470;2023-08-06T09:35:21;92410.53;;;23.90;71.89
11053;BME280;55230;42.602;23.470;2023-08-06T09:37:48;92401.78;;;24.17;73.80
11053;BME280;55230;42.602;23.470;2023-08-06T09:40:24;92401.69;;;23.92;67.56
11053;BME280;55230;42.602;23.470;2023-08-06T09:42:52;92393.16;;;23.73;68.97
11053;BME280;55230;42.602;23.470;2023-08-06T09:45:19;92395.44;;;23.99;67.68
11053;BME280;55230;42.602;23.470;2023-08-06T09:47:47;92391.16;;;23.73;68.73
11053;BME280;55230;42.602;23.470;2023-08-06T09:50:14;92390.69;;;23.99;67.92
11053;BME280;55230;42.602;23.470;2023-08-06T09:52:41;92386.38;;;24.14;62.59
11053;BME280;55230;42.602;23.470;2023-08-06T09:55:09;92399.16;;;24.26;64.31
11053;BME280;55230;42.602;23.470;2023-08-06T09:57:36;92403.81;;;24.41;65.71
11053;BME280;55230;42.602;23.470;2023-08-06T10:00:05;92400.44;;;23.85;66.06
11053;BME280;55230;42.602;23.470;2023-08-06T10:02:33;92396.88;;;24.08;66.26
11053;BME280;55230;42.602;23.470;2023-08-06T10:05:00;92406.13;;;24.27;66.02
11053;BME280;55230;42.602;23.470;2023-08-06T10:07:28;92410.69;;;24.32;62.42
11053;BME280;55230;42.602;23.470;2023-08-06T10:09:55;92408.78;;;24.67;61.81
11053;BME280;55230;42.602;23.470;2023-08-06T10:12:22;92400.13;;;24.70;61.00
11053;BME280;55230;42.602;23.470;2023-08-06T10:14:51;92405.03;;;24.79;54.46
11053;BME280;55230;42.602;23.470;2023-08-06T10:17:20;92412.50;;;24.62;56.38
11053;BME280;55230;42.602;23.470;2023-08-06T10:19:48;92407.03;;;24.54;58.25
11053;BME280;55230;42.602;23.470;2023-08-06T10:22:16;92414.66;;;24.71;54.59
11053;BME280;55230;42.602;23.470;2023-08-06T10:24:46;92403.81;;;24.41;57.10
11053;BME280;55230;42.602;23.470;2023-08-06T10:27:12;92413.91;;;24.14;56.39
11053;BME280;55230;42.602;23.470;2023-08-06T10:29:39;92421.41;;;23.81;57.33
11053;BME280;55230;42.602;23.470;2023-08-06T10:32:05;92418.16;;;23.67;58.61
11053;BME280;55230;42.602;23.470;2023-08-06T10:37:16;92424.34;;;23.83;61.64
11053;BME280;55230;42.602;23.470;2023-08-06T10:39:47;92420.91;;;23.67;59.65
11053;BME280;55230;42.602;23.470;2023-08-06T10:42:19;92430.94;;;23.80;59.02
11053;BME280;55230;42.602;23.470;2023-08-06T10:47:26;92436.06;;;23.83;60.57
11053;BME280;55230;42.602;23.470;2023-08-06T10:49:53;92437.00;;;23.78;59.27
11053;BME280;55230;42.602;23.470;2023-08-06T10:52:21;92452.19;;;23.94;61.59
11053;BME280;55230;42.602;23.470;2023-08-06T10:54:48;92447.81;;;23.84;59.45
11053;BME280;55230;42.602;23.470;2023-08-06T10:57:14;92459.91;;;23.88;59.28
11053;BME280;55230;42.602;23.470;2023-08-06T10:59:41;92457.00;;;23.86;58.69
11053;BME280;55230;42.602;23.470;2023-08-06T11:02:07;92462.63;;;23.96;61.84
11053;BME280;55230;42.602;23.470;2023-08-06T11:04:34;92454.41;;;23.88;60.51
11053;BME280;55230;42.602;23.470;2023-08-06T11:07:00;92470.78;;;23.86;60.76
11053;BME280;55230;42.602;23.470;2023-08-06T11:09:28;92470.22;;;23.88;57.62
11053;BME280;55230;42.602;23.470;2023-08-06T11:11:55;92478.28;;;23.93;58.54
11053;BME280;55230;42.602;23.470;2023-08-06T11:14:21;92474.72;;;23.53;61.21
11053;BME280;55230;42.602;23.470;2023-08-06T11:16:48;92472.28;;;23.72;62.47
11053;BME280;55230;42.602;23.470;2023-08-06T11:19:15;92472.47;;;23.74;61.81
11053;BME280;55230;42.602;23.470;2023-08-06T11:21:42;92473.59;;;23.56;64.34
11053;BME280;55230;42.602;23.470;2023-08-06T11:24:09;92477.16;;;23.89;64.12
11053;BME280;55230;42.602;23.470;2023-08-06T11:26:37;92476.34;;;24.11;62.89
11053;BME280;55230;42.602;23.470;2023-08-06T11:29:05;92466.75;;;24.20;60.36
11053;BME280;55230;42.602;23.470;2023-08-06T11:31:31;92471.44;;;24.42;60.60
11053;BME280;55230;42.602;23.470;2023-08-06T11:33:58;92482.53;;;24.27;58.75
11053;BME280;55230;42.602;23.470;2023-08-06T11:36:31;92473.16;;;24.30;60.15
11053;BME280;55230;42.602;23.470;2023-08-06T11:38:57;92469.66;;;24.29;60.40
11053;BME280;55230;42.602;23.470;2023-08-06T11:41:24;92473.84;;;23.90;60.98
11053;BME280;55230;42.602;23.470;2023-08-06T11:43:52;92483.84;;;23.71;64.71
11053;BME280;55230;42.602;23.470;2023-08-06T11:46:18;92488.22;;;23.81;56.36
11053;BME280;55230;42.602;23.470;2023-08-06T11:48:51;92476.34;;;24.11;54.75
11053;BME280;55230;42.602;23.470;2023-08-06T11:51:18;92466.31;;;24.38;51.98
11053;BME280;55230;42.602;23.470;2023-08-06T11:53:46;92464.53;;;24.58;50.48
11053;BME280;55230;42.602;23.470;2023-08-06T11:56:14;92477.19;;;24.61;50.15
11053;BME280;55230;42.602;23.470;2023-08-06T11:58:41;92472.50;;;24.14;51.62
11053;BME280;55230;42.602;23.470;2023-08-06T12:01:09;92467.59;;;23.97;54.59
11053;BME280;55230;42.602;23.470;2023-08-06T12:03:38;92474.94;;;24.02;53.75
11053;BME280;55230;42.602;23.470;2023-08-06T12:06:05;92475.16;;;23.89;55.35
11053;BME280;55230;42.602;23.470;2023-08-06T12:08:32;92483.69;;;23.61;55.14
11053;BME280;55230;42.602;23.470;2023-08-06T12:10:59;92479.44;;;23.75;54.78
11053;BME280;55230;42.602;23.470;2023-08-06T12:13:25;92489.31;;;23.78;54.64
11053;BME280;55230;42.602;23.470;2023-08-06T12:15:53;92473.59;;;23.56;54.91
11053;BME280;55230;42.602;23.470;2023-08-06T12:18:21;92482.72;;;23.81;57.47
11053;BME280;55230;42.602;23.470;2023-08-06T12:20:47;92473.16;;;23.90;58.06
11053;BME280;55230;42.602;23.470;2023-08-06T12:23:15;92468.88;;;23.96;56.21
11053;BME280;55230;42.602;23.470;2023-08-06T12:25:41;92469.00;;;24.21;55.01
11053;BME280;55230;42.602;23.470;2023-08-06T12:28:09;92464.63;;;24.43;58.02
11053;BME280;55230;42.602;23.470;2023-08-06T12:30:37;92460.06;;;24.70;53.33
11053;BME280;55230;42.602;23.470;2023-08-06T12:33:06;92464.66;;;23.95;53.72
11053;BME280;55230;42.602;23.470;2023-08-06T12:35:34;92463.47;;;23.74;56.08
11053;BME280;55230;42.602;23.470;2023-08-06T12:38:02;92469.47;;;23.87;59.78
11053;BME280;55230;42.602;23.470;2023-08-06T12:40:29;92471.06;;;24.45;59.40
11053;BME280;55230;42.602;23.470;2023-08-06T12:42:55;92463.53;;;24.95;57.25
11053;BME280;55230;42.602;23.470;2023-08-06T12:45:22;92467.78;;;25.38;55.40
11053;BME280;55230;42.602;23.470;2023-08-06T12:47:48;92461.69;;;25.73;53.95
11053;BME280;55230;42.602;23.470;2023-08-06T12:50:15;92462.84;;;25.36;53.44
11053;BME280;55230;42.602;23.470;2023-08-06T12:52:43;92460.56;;;25.42;55.01
11053;BME280;55230;42.602;23.470;2023-08-06T12:55:10;92456.38;;;25.34;53.22
11053;BME280;55230;42.602;23.470;2023-08-06T12:57:36;92453.03;;;25.18;53.59
11053;BME280;55230;42.602;23.470;2023-08-06T13:00:05;92459.13;;;24.92;56.14
11053;BME280;55230;42.602;23.470;2023-08-06T13:02:32;92453.44;;;25.32;53.21
11053;BME280;55230;42.602;23.470;2023-08-06T13:04:59;92451.06;;;25.11;52.22
11053;BME280;55230;42.602;23.470;2023-08-06T13:07:28;92449.47;;;25.25;52.31
11053;BME280;55230;42.602;23.470;2023-08-06T13:09:56;92450.41;;;25.45;54.59
11053;BME280;55230;42.602;23.470;2023-08-06T13:12:22;92448.97;;;25.44;54.93
11053;BME280;55230;42.602;23.470;2023-08-06T13:14:49;92449.81;;;25.97;53.02
11053;BME280;55230;42.602;23.470;2023-08-06T13:17:15;92448.69;;;26.00;50.60
11053;BME280;55230;42.602;23.470;2023-08-06T13:19:42;92449.63;;;25.52;53.20
11053;BME280;55230;42.602;23.470;2023-08-06T13:22:08;92463.75;;;25.14;53.93
11053;BME280;55230;42.602;23.470;2023-08-06T13:24:35;92464.59;;;24.99;54.53
11053;BME280;55230;42.602;23.470;2023-08-06T13:27:03;92464.25;;;25.20;55.71
11053;BME280;55230;42.602;23.470;2023-08-06T13:29:35;92457.16;;;25.68;52.63
11053;BME280;55230;42.602;23.470;2023-08-06T13:32:02;92461.78;;;25.83;52.71
11053;BME280;55230;42.602;23.470;2023-08-06T13:34:29;92456.81;;;25.98;51.41
11053;BME280;55230;42.602;23.470;2023-08-06T13:36:55;92462.84;;;26.04;50.23
11053;BME280;55230;42.602;23.470;2023-08-06T13:39:22;92463.50;;;25.95;48.61
11053;BME280;55230;42.602;23.470;2023-08-06T13:41:48;92456.59;;;25.53;50.29
11053;BME280;55230;42.602;23.470;2023-08-06T13:44:16;92449.38;;;25.40;50.21
11053;BME280;55230;42.602;23.470;2023-08-06T13:46:42;92464.63;;;25.17;51.50
11053;BME280;55230;42.602;23.470;2023-08-06T13:49:09;92471.53;;;24.83;52.89
11053;BME280;55230;42.602;23.470;2023-08-06T13:51:36;92476.25;;;24.90;53.69
11053;BME280;55230;42.602;23.470;2023-08-06T13:54:03;92473.56;;;24.83;52.89
11053;BME280;55230;42.602;23.470;2023-08-06T13:56:30;92476.84;;;24.57;52.13
11053;BME280;55230;42.602;23.470;2023-08-06T13:58:56;92474.28;;;24.59;53.71
11053;BME280;55230;42.602;23.470;2023-08-06T14:01:24;92474.13;;;24.81;55.18
11053;BME280;55230;42.602;23.470;2023-08-06T14:03:50;92472.41;;;24.61;52.66
11053;BME280;55230;42.602;23.470;2023-08-06T14:06:18;92479.59;;;24.89;54.25
11053;BME280;55230;42.602;23.470;2023-08-06T14:08:45;92470.00;;;25.14;53.28
11053;BME280;55230;42.602;23.470;2023-08-06T14:11:11;92472.91;;;25.41;53.01